createdAt,value
2019-02-15T00:01:49.406Z,4.85
2019-02-15T00:04:17.102Z,6.28
2019-02-15T00:06:44.719Z,9.43
2019-02-15T00:09:12.391Z,8.23
2019-02-15T00:11:40.017Z,13.28
2019-02-15T00:14:07.709Z,10.58
2019-02-15T00:16:35.340Z,10.85
2019-02-15T00:19:31.548Z,7.30
2019-02-15T00:21:59.237Z,8.80
2019-02-15T00:24:26.903Z,6.12
2019-02-15T00:26:54.531Z,5.97
2019-02-15T00:29:22.212Z,5.92
2019-02-15T00:31:49.896Z,7.15
2019-02-15T00:34:17.535Z,8.80
2019-02-15T00:36:45.244Z,6.28
2019-02-15T00:39:12.867Z,6.25
2019-02-15T00:41:40.544Z,4.92
2019-02-15T00:44:08.198Z,5.22
2019-02-15T00:46:49.713Z,5.60
2019-02-15T00:49:42.587Z,6.62
2019-02-15T00:52:29.697Z,7.62
2019-02-15T00:55:12.735Z,7.03
2019-02-15T00:57:51.256Z,7.45
2019-02-15T01:00:50.384Z,6.90
2019-02-15T01:03:52.686Z,5.60
2019-02-15T01:06:39.789Z,4.53
2019-02-15T01:09:26.648Z,6.87
2019-02-15T01:12:13.816Z,6.17
2019-02-15T01:14:41.532Z,7.08
2019-02-15T01:17:09.629Z,6.72
2019-02-15T01:19:37.263Z,6.12
2019-02-15T01:22:04.899Z,6.78
2019-02-15T01:24:32.603Z,7.35
2019-02-15T01:27:09.191Z,7.03
2019-02-15T01:29:59.159Z,6.05
2019-02-15T01:32:53.636Z,7.15
2019-02-15T01:35:39.652Z,5.67
2019-02-15T01:38:32.330Z,8.40
2019-02-15T01:41:06.105Z,7.62
2019-02-15T01:43:46.030Z,9.50
2019-02-15T01:46:42.166Z,7.08
2019-02-15T01:49:09.820Z,6.05
2019-02-15T01:51:37.461Z,5.75
2019-02-15T01:54:05.139Z,7.28
2019-02-15T01:56:32.819Z,7.33
2019-02-15T01:59:00.514Z,6.00
2019-02-15T02:01:28.678Z,7.17
2019-02-15T02:03:56.334Z,6.00
2019-02-15T02:06:23.996Z,7.35
2019-02-15T02:08:51.733Z,8.95
2019-02-15T02:11:19.400Z,7.92
2019-02-15T02:13:49.666Z,8.18
2019-02-15T02:16:16.481Z,7.80
2019-02-15T02:18:44.111Z,6.20
2019-02-15T02:21:11.764Z,8.33
2019-02-15T02:23:39.456Z,6.85
2019-02-15T02:26:07.116Z,6.55
2019-02-15T02:28:34.748Z,5.55
2019-02-15T02:31:02.404Z,5.28
2019-02-15T02:33:30.035Z,7.83
2019-02-15T02:35:57.711Z,5.72
2019-02-15T02:38:25.371Z,8.63
2019-02-15T02:40:53.039Z,6.60
2019-02-15T02:43:20.719Z,7.47
2019-02-15T02:45:48.423Z,7.15
2019-02-15T02:48:16.184Z,6.60
2019-02-15T02:50:43.886Z,7.25
2019-02-15T02:53:11.640Z,6.62
2019-02-15T02:55:39.333Z,6.75
2019-02-15T02:58:07.039Z,8.35
2019-02-15T03:00:34.838Z,5.83
2019-02-15T03:03:02.546Z,6.92
2019-02-15T03:05:30.224Z,6.97
2019-02-15T03:07:57.950Z,5.22
2019-02-15T03:10:25.663Z,6.95
2019-02-15T03:12:53.319Z,8.43
2019-02-15T03:15:21.025Z,7.33
2019-02-15T03:17:48.716Z,8.48
2019-02-15T03:20:16.408Z,6.62
2019-02-15T03:22:44.090Z,6.55
2019-02-15T03:25:11.807Z,7.03
2019-02-15T03:27:39.532Z,6.70
2019-02-15T03:30:07.888Z,6.65
2019-02-15T03:32:35.577Z,7.62
2019-02-15T03:35:03.489Z,6.75
2019-02-15T03:37:56.398Z,7.92
2019-02-15T03:40:30.271Z,7.62
2019-02-15T03:42:57.979Z,7.58
2019-02-15T03:45:25.701Z,8.93
2019-02-15T03:47:53.410Z,8.70
2019-02-15T03:50:21.128Z,6.97
2019-02-15T03:52:48.930Z,8.85
2019-02-15T03:55:16.642Z,7.92
2019-02-15T03:57:44.338Z,8.58
2019-02-15T04:00:12.555Z,7.42
2019-02-15T04:02:40.549Z,8.73
2019-02-15T04:05:08.352Z,9.30
2019-02-15T04:07:36.015Z,9.25
2019-02-15T04:10:04.683Z,8.93
2019-02-15T04:12:32.484Z,6.97
2019-02-15T04:15:00.399Z,7.80
2019-02-15T04:17:28.079Z,11.10
2019-02-15T04:19:55.827Z,7.90
2019-02-15T04:22:23.521Z,7.45
2019-02-15T04:24:51.208Z,7.35
2019-02-15T04:27:18.925Z,7.12
2019-02-15T04:29:46.639Z,8.15
2019-02-15T04:32:14.395Z,6.65
2019-02-15T04:34:42.051Z,5.15
2019-02-15T04:37:09.746Z,8.33
2019-02-15T04:39:37.578Z,9.10
2019-02-15T04:42:05.241Z,10.32
2019-02-15T04:44:42.336Z,7.17
2019-02-15T04:47:02.474Z,12.65
2019-02-15T04:49:30.213Z,8.13
2019-02-15T04:51:57.903Z,9.95
2019-02-15T04:54:25.599Z,7.87
2019-02-15T04:56:53.349Z,7.12
2019-02-15T04:59:21.008Z,9.70
2019-02-15T05:01:48.695Z,6.60
2019-02-15T05:04:16.410Z,8.43
2019-02-15T05:06:44.104Z,6.72
2019-02-15T05:09:11.867Z,7.42
2019-02-15T05:11:39.548Z,7.80
2019-02-15T05:14:07.261Z,9.18
2019-02-15T05:16:34.960Z,8.90
2019-02-15T05:19:02.735Z,7.97
2019-02-15T05:21:30.428Z,10.20
2019-02-15T05:23:58.146Z,9.55
2019-02-15T05:26:25.917Z,10.78
2019-02-15T05:28:53.607Z,13.10
2019-02-15T05:31:21.346Z,12.73
2019-02-15T05:33:49.469Z,13.48
2019-02-15T05:36:17.155Z,10.85
2019-02-15T05:38:44.864Z,15.58
2019-02-15T05:41:12.613Z,13.10
2019-02-15T05:43:40.310Z,13.65
2019-02-15T05:46:08.007Z,10.28
2019-02-15T05:48:35.747Z,8.55
2019-02-15T05:51:03.411Z,7.47
2019-02-15T05:53:31.107Z,13.98
2019-02-15T05:55:58.810Z,11.70
2019-02-15T05:58:26.608Z,12.63
2019-02-15T06:00:54.286Z,13.80
2019-02-15T06:03:21.994Z,11.57
2019-02-15T06:05:49.804Z,12.45
2019-02-15T06:08:17.497Z,10.82
2019-02-15T06:10:45.174Z,11.95
2019-02-15T06:13:12.871Z,13.90
2019-02-15T06:15:40.600Z,15.88
2019-02-15T06:18:08.332Z,15.23
2019-02-15T06:20:36.023Z,11.05
2019-02-15T06:23:03.757Z,15.28
2019-02-15T06:25:31.458Z,11.22
2019-02-15T06:27:59.169Z,14.20
2019-02-15T06:30:26.922Z,15.35
2019-02-15T06:32:54.607Z,11.00
2019-02-15T06:35:22.351Z,14.95
2019-02-15T06:37:50.058Z,22.70
2019-02-15T06:40:17.779Z,27.02
2019-02-15T06:42:45.617Z,23.00
2019-02-15T06:45:13.325Z,17.57
2019-02-15T06:47:41.077Z,18.07
2019-02-15T06:50:08.763Z,13.65
2019-02-15T06:52:36.482Z,15.48
2019-02-15T06:55:04.387Z,18.60
2019-02-15T06:57:32.114Z,17.75
2019-02-15T07:00:17.729Z,13.88
2019-02-15T07:03:01.869Z,14.38
2019-02-15T07:05:29.566Z,9.95
2019-02-15T07:07:57.256Z,10.70
2019-02-15T07:10:24.961Z,12.25
2019-02-15T07:12:52.623Z,9.93
2019-02-15T07:15:20.315Z,13.32
2019-02-15T07:17:48.069Z,9.95
2019-02-15T07:20:15.790Z,11.88
2019-02-15T07:22:43.468Z,11.33
2019-02-15T07:25:11.346Z,9.68
2019-02-15T07:27:39.039Z,11.90
2019-02-15T07:30:08.370Z,9.10
2019-02-15T07:32:36.098Z,12.47
2019-02-15T07:35:04.040Z,14.43
2019-02-15T07:37:31.778Z,11.15
2019-02-15T07:39:59.545Z,16.00
2019-02-15T07:42:27.271Z,14.65
2019-02-15T07:44:54.982Z,15.68
2019-02-15T07:47:22.736Z,16.65
2019-02-15T07:49:50.465Z,14.85
2019-02-15T07:52:18.203Z,21.55
2019-02-15T07:54:46.050Z,14.35
2019-02-15T07:57:13.741Z,12.20
2019-02-15T07:59:41.430Z,10.63
2019-02-15T08:02:09.132Z,11.78
2019-02-15T08:04:36.815Z,15.65
2019-02-15T08:07:04.526Z,9.68
2019-02-15T08:09:32.225Z,17.10
2019-02-15T08:11:59.974Z,11.08
2019-02-15T08:14:27.711Z,16.35
2019-02-15T08:16:55.389Z,15.58
2019-02-15T08:19:23.121Z,19.80
2019-02-15T08:21:50.804Z,15.00
2019-02-15T08:24:18.467Z,16.10
2019-02-15T08:26:46.197Z,15.53
2019-02-15T08:29:13.924Z,12.35
2019-02-15T08:31:41.625Z,13.03
2019-02-15T08:34:09.343Z,12.03
2019-02-15T08:36:37.076Z,11.70
2019-02-15T08:39:06.220Z,12.37
2019-02-15T08:41:33.924Z,11.65
2019-02-15T08:44:01.621Z,12.20
2019-02-15T08:46:29.317Z,16.30
2019-02-15T08:48:57.042Z,13.03
2019-02-15T08:51:24.802Z,10.43
2019-02-15T08:53:52.511Z,12.87
2019-02-15T08:56:20.217Z,12.40
2019-02-15T08:58:48.053Z,10.60
2019-02-15T09:01:15.718Z,12.60
2019-02-15T09:03:43.449Z,10.60
2019-02-15T09:06:11.132Z,13.60
2019-02-15T09:08:38.874Z,9.57
2019-02-15T09:11:06.530Z,10.77
2019-02-15T09:13:34.237Z,11.80
2019-02-15T09:16:10.133Z,9.87
2019-02-15T09:18:31.423Z,10.83
2019-02-15T09:20:59.112Z,7.77
2019-02-15T09:23:26.821Z,9.43
2019-02-15T09:25:54.563Z,7.87
2019-02-15T09:28:35.867Z,10.53
2019-02-15T09:31:03.572Z,8.03
2019-02-15T09:33:31.292Z,10.80
2019-02-15T09:35:59.025Z,8.07
2019-02-15T09:38:26.709Z,7.77
2019-02-15T09:40:54.442Z,6.50
2019-02-15T09:43:22.128Z,4.93
2019-02-15T09:45:49.840Z,7.90
2019-02-15T09:48:17.537Z,9.90
2019-02-15T09:50:45.297Z,8.17
2019-02-15T09:53:12.996Z,8.20
2019-02-15T09:55:40.669Z,10.53
2019-02-15T09:58:08.400Z,9.00
2019-02-15T10:00:36.074Z,11.27
2019-02-15T10:03:03.843Z,7.90
2019-02-15T10:05:31.473Z,8.57
2019-02-15T10:07:59.181Z,9.23
2019-02-15T10:10:28.109Z,7.37
2019-02-15T10:12:55.846Z,6.27
2019-02-15T10:15:23.530Z,8.93
2019-02-15T10:17:51.214Z,6.33
2019-02-15T10:20:18.976Z,4.20
2019-02-15T10:22:46.711Z,4.53
2019-02-15T10:25:14.385Z,6.00
2019-02-15T10:27:42.042Z,4.13
2019-02-15T10:30:09.777Z,3.63
2019-02-15T10:32:37.462Z,4.70
2019-02-15T10:35:06.186Z,4.40
2019-02-15T10:37:33.887Z,6.47
2019-02-15T10:40:01.580Z,4.70
2019-02-15T10:42:29.263Z,3.57
2019-02-15T10:44:57.028Z,5.27
2019-02-15T10:47:25.492Z,3.00
2019-02-15T10:49:53.226Z,6.17
2019-02-15T10:52:20.969Z,5.33
2019-02-15T10:54:48.666Z,5.10
2019-02-15T10:57:16.370Z,5.47
2019-02-15T10:59:44.038Z,7.50
2019-02-15T11:02:11.753Z,4.20
2019-02-15T11:04:41.097Z,5.73
2019-02-15T11:07:08.905Z,5.03
2019-02-15T11:09:36.563Z,3.03
2019-02-15T11:12:04.318Z,3.20
2019-02-15T11:14:32.022Z,4.77
2019-02-15T11:16:59.738Z,4.50
2019-02-15T11:19:27.493Z,4.33
2019-02-15T11:21:55.174Z,4.27
2019-02-15T11:24:23.692Z,3.57
2019-02-15T11:26:51.601Z,2.70
2019-02-15T11:29:19.309Z,2.60
2019-02-15T11:31:47.039Z,2.83
2019-02-15T11:34:14.751Z,2.73
2019-02-15T11:36:42.403Z,2.60
2019-02-15T11:39:10.149Z,2.97
2019-02-15T11:41:37.852Z,2.97
2019-02-15T11:44:05.533Z,2.77
2019-02-15T11:46:33.253Z,3.60
2019-02-15T11:49:00.939Z,2.87
2019-02-15T11:51:28.712Z,3.23
2019-02-15T11:53:58.588Z,2.60
2019-02-15T11:56:26.122Z,3.53
2019-02-15T11:58:53.805Z,2.97
2019-02-15T12:01:22.089Z,3.20
2019-02-15T12:03:49.807Z,2.70
2019-02-15T12:06:17.496Z,2.20
2019-02-15T12:08:45.171Z,3.63
2019-02-15T12:11:12.879Z,3.33
2019-02-15T12:13:40.581Z,1.90
2019-02-15T12:16:08.262Z,1.90
2019-02-15T12:18:35.971Z,4.00
2019-02-15T12:21:03.699Z,3.83
2019-02-15T12:23:31.435Z,3.33
2019-02-15T12:25:59.093Z,2.87
2019-02-15T12:28:26.795Z,3.37
2019-02-15T12:30:54.510Z,2.00
2019-02-15T12:33:22.291Z,4.33
2019-02-15T12:35:50.109Z,4.03
2019-02-15T12:38:17.784Z,2.73
2019-02-15T12:40:45.542Z,2.20
2019-02-15T12:43:13.190Z,1.97
2019-02-15T12:45:40.859Z,3.23
2019-02-15T12:48:08.598Z,3.30
2019-02-15T12:50:36.334Z,2.73
2019-02-15T12:53:04.031Z,2.37
2019-02-15T12:55:31.757Z,2.87
2019-02-15T12:57:59.431Z,3.07
2019-02-15T13:00:27.183Z,4.00
2019-02-15T13:02:54.870Z,2.70
2019-02-15T13:05:22.641Z,2.80
2019-02-15T13:07:50.427Z,2.57
2019-02-15T13:10:21.625Z,3.53
2019-02-15T13:12:49.334Z,3.53
2019-02-15T13:15:17.042Z,2.20
2019-02-15T13:17:44.724Z,2.33
2019-02-15T13:20:12.401Z,3.13
2019-02-15T13:22:40.153Z,2.03
2019-02-15T13:25:07.810Z,2.20
2019-02-15T13:27:35.542Z,2.83
2019-02-15T13:30:03.467Z,2.53
2019-02-15T13:32:31.177Z,3.93
2019-02-15T13:34:58.909Z,2.43
2019-02-15T13:37:26.575Z,2.70
2019-02-15T13:39:54.280Z,2.80
2019-02-15T13:42:22.094Z,2.10
2019-02-15T13:44:49.779Z,2.47
2019-02-15T13:47:17.466Z,4.67
2019-02-15T13:49:45.234Z,3.03
2019-02-15T13:52:12.931Z,2.63
2019-02-15T13:54:40.638Z,3.43
2019-02-15T13:57:08.330Z,2.70
2019-02-15T13:59:36.036Z,2.67
2019-02-15T14:02:05.101Z,4.20
2019-02-15T14:04:32.904Z,2.87
2019-02-15T14:07:00.639Z,2.40
2019-02-15T14:09:28.362Z,3.67
2019-02-15T14:11:56.050Z,2.10
2019-02-15T14:14:23.805Z,1.93
2019-02-15T14:16:51.511Z,2.77
2019-02-15T14:19:19.337Z,2.00
2019-02-15T14:21:47.005Z,2.47
2019-02-15T14:24:14.715Z,2.23
2019-02-15T14:26:42.429Z,2.33
2019-02-15T14:29:10.174Z,4.07
2019-02-15T14:31:37.878Z,2.93
2019-02-15T14:34:05.557Z,1.77
2019-02-15T14:36:33.302Z,2.00
2019-02-15T14:39:00.981Z,3.23
2019-02-15T14:41:28.642Z,3.00
2019-02-15T14:43:56.362Z,3.03
2019-02-15T14:46:24.075Z,2.77
2019-02-15T14:48:51.738Z,2.97
2019-02-15T14:51:19.469Z,2.20
2019-02-15T14:53:47.184Z,3.47
2019-02-15T14:56:14.873Z,4.40
2019-02-15T14:58:42.559Z,3.53
2019-02-15T15:01:10.254Z,3.10
2019-02-15T15:03:37.938Z,2.93
2019-02-15T15:06:05.635Z,2.80
2019-02-15T15:08:33.370Z,2.93
2019-02-15T15:11:01.065Z,2.53
2019-02-15T15:13:28.778Z,2.37
2019-02-15T15:15:56.515Z,2.10
2019-02-15T15:18:24.243Z,1.93
2019-02-15T15:20:51.932Z,4.17
2019-02-15T15:23:19.623Z,3.57
2019-02-15T15:25:47.387Z,4.13
2019-02-15T15:28:15.046Z,2.30
2019-02-15T15:30:42.754Z,3.17
2019-02-15T15:33:10.430Z,4.70
2019-02-15T15:35:38.133Z,4.60
2019-02-15T15:38:05.834Z,3.23
2019-02-15T15:40:33.599Z,2.10
2019-02-15T15:43:01.373Z,1.90
2019-02-15T15:45:29.059Z,2.10
2019-02-15T15:47:56.779Z,2.00
2019-02-15T15:50:24.671Z,4.13
2019-02-15T15:52:52.303Z,3.27
2019-02-15T15:55:19.991Z,3.27
2019-02-15T15:57:47.715Z,3.30
2019-02-15T16:00:15.503Z,3.30
2019-02-15T16:02:43.202Z,3.00
2019-02-15T16:05:10.922Z,3.97
2019-02-15T16:07:38.626Z,3.10
2019-02-15T16:10:07.673Z,4.20
2019-02-15T16:12:35.338Z,2.70
2019-02-15T16:15:03.187Z,3.57
2019-02-15T16:17:30.935Z,4.07
2019-02-15T16:19:58.586Z,4.43
2019-02-15T16:22:26.238Z,3.87
2019-02-15T16:24:53.974Z,3.27
2019-02-15T16:27:21.656Z,4.43
2019-02-15T16:29:49.339Z,4.53
2019-02-15T16:32:17.066Z,2.57
2019-02-15T16:34:44.785Z,2.20
2019-02-15T16:37:12.470Z,3.30
2019-02-15T16:39:40.145Z,3.93
2019-02-15T16:42:07.870Z,3.10
2019-02-15T16:44:35.534Z,2.27
2019-02-15T16:47:03.261Z,3.87
2019-02-15T16:49:30.998Z,3.73
2019-02-15T16:51:58.763Z,5.10
2019-02-15T16:54:26.473Z,6.37
2019-02-15T16:56:54.226Z,7.03
2019-02-15T16:59:21.906Z,5.93
2019-02-15T17:01:49.603Z,5.80
2019-02-15T17:04:17.281Z,5.73
2019-02-15T17:06:45.028Z,6.53
2019-02-15T17:09:16.592Z,5.57
2019-02-15T17:11:44.318Z,5.13
2019-02-15T17:14:12.019Z,7.53
2019-02-15T17:16:39.722Z,5.67
2019-02-15T17:19:07.445Z,7.77
2019-02-15T17:21:35.150Z,6.03
2019-02-15T17:24:02.969Z,4.97
2019-02-15T17:26:30.694Z,6.07
2019-02-15T17:28:58.373Z,6.53
2019-02-15T17:31:26.073Z,7.30
2019-02-15T17:33:53.795Z,8.10
2019-02-15T17:36:21.504Z,7.23
2019-02-15T17:38:49.231Z,5.47
2019-02-15T17:41:16.930Z,5.50
2019-02-15T17:43:44.624Z,5.27
2019-02-15T17:46:12.355Z,9.23
2019-02-15T17:48:40.073Z,6.97
2019-02-15T17:51:07.862Z,9.20
2019-02-15T17:53:35.578Z,7.93
2019-02-15T17:56:03.347Z,9.70
2019-02-15T17:58:31.110Z,7.53
2019-02-15T18:00:58.798Z,6.73
2019-02-15T18:03:26.652Z,7.23
2019-02-15T18:05:54.314Z,9.47
2019-02-15T18:08:21.973Z,6.67
2019-02-15T18:10:49.660Z,4.93
2019-02-15T18:13:17.411Z,6.83
2019-02-15T18:15:45.094Z,7.90
2019-02-15T18:18:12.782Z,4.90
2019-02-15T18:20:40.529Z,4.23
2019-02-15T18:23:08.211Z,4.37
2019-02-15T18:25:35.901Z,4.43
2019-02-15T18:28:03.605Z,5.30
2019-02-15T18:30:31.314Z,5.10
2019-02-15T18:32:59.047Z,6.20
2019-02-15T18:35:26.727Z,6.53
2019-02-15T18:37:54.413Z,5.23
2019-02-15T18:40:22.143Z,5.60
2019-02-15T18:42:49.879Z,6.63
2019-02-15T18:45:17.592Z,4.87
2019-02-15T18:47:45.325Z,7.10
2019-02-15T18:50:12.983Z,6.00
2019-02-15T18:52:40.751Z,7.03
2019-02-15T18:55:08.685Z,6.30
2019-02-15T18:57:36.855Z,8.93
2019-02-15T19:00:06.122Z,8.60
2019-02-15T19:02:33.820Z,10.20
2019-02-15T19:05:01.508Z,8.67
2019-02-15T19:07:29.236Z,7.40
2019-02-15T19:09:56.937Z,10.43
2019-02-15T19:12:24.638Z,9.37
2019-02-15T19:14:52.358Z,10.83
2019-02-15T19:17:20.074Z,10.93
2019-02-15T19:19:47.785Z,13.37
2019-02-15T19:22:15.496Z,11.03
2019-02-15T19:24:43.277Z,11.93
2019-02-15T19:27:10.963Z,9.93
2019-02-15T19:29:38.771Z,13.93
2019-02-15T19:32:06.541Z,12.87
2019-02-15T19:34:34.230Z,9.23
2019-02-15T19:37:01.967Z,10.43
2019-02-15T19:39:29.598Z,10.10
2019-02-15T19:41:57.445Z,8.20
2019-02-15T19:44:25.095Z,10.30
2019-02-15T19:46:52.834Z,11.07
2019-02-15T19:49:20.473Z,8.93
2019-02-15T19:51:48.218Z,9.17
2019-02-15T19:54:15.969Z,7.83
2019-02-15T19:56:43.662Z,6.47
2019-02-15T19:59:11.357Z,6.43
2019-02-15T20:01:39.086Z,10.07
2019-02-15T20:04:06.814Z,6.63
2019-02-15T20:06:34.513Z,5.87
2019-02-15T20:09:02.221Z,5.93
2019-02-15T20:11:29.948Z,4.27
2019-02-15T20:13:59.889Z,6.30
2019-02-15T20:16:27.280Z,5.30
2019-02-15T20:18:55.075Z,5.80
2019-02-15T20:21:22.806Z,6.50
2019-02-15T20:23:50.539Z,7.17
2019-02-15T20:26:18.358Z,7.10
2019-02-15T20:28:46.090Z,7.40
2019-02-15T20:31:13.833Z,6.63
2019-02-15T20:33:41.536Z,7.53
2019-02-15T20:36:09.325Z,5.93
2019-02-15T20:38:37.014Z,4.93
2019-02-15T20:41:04.721Z,8.10
2019-02-15T20:43:32.465Z,5.43
2019-02-15T20:46:00.164Z,4.57
2019-02-15T20:48:27.856Z,5.97
2019-02-15T20:50:55.815Z,5.73
2019-02-15T20:53:23.549Z,6.00
2019-02-15T20:55:51.226Z,4.27
2019-02-15T20:58:19.836Z,4.37
2019-02-15T21:00:47.533Z,3.43
2019-02-15T21:03:15.259Z,5.97
2019-02-15T21:05:42.962Z,6.57
2019-02-15T21:08:10.740Z,8.40
2019-02-15T21:10:38.422Z,4.07
2019-02-15T21:13:06.099Z,4.67
2019-02-15T21:15:33.850Z,3.47
2019-02-15T21:18:01.534Z,4.53
2019-02-15T21:20:29.232Z,4.87
2019-02-15T21:22:56.897Z,5.10
2019-02-15T21:25:24.726Z,3.73
2019-02-15T21:27:52.431Z,4.00
2019-02-15T21:30:20.104Z,3.90
2019-02-15T21:32:47.861Z,5.23
2019-02-15T21:35:15.578Z,4.43
2019-02-15T21:37:43.311Z,3.40
2019-02-15T21:40:12.053Z,3.53
2019-02-15T21:42:39.754Z,6.83
2019-02-15T21:45:08.093Z,4.63
2019-02-15T21:47:35.787Z,4.43
2019-02-15T21:50:03.598Z,6.33
2019-02-15T21:52:31.459Z,4.00
2019-02-15T21:54:59.150Z,4.77
2019-02-15T21:57:26.833Z,5.03
2019-02-15T21:59:54.590Z,4.27
2019-02-15T22:02:22.274Z,3.83
2019-02-15T22:04:49.994Z,3.83
2019-02-15T22:07:17.786Z,5.27
2019-02-15T22:09:45.479Z,3.93
2019-02-15T22:12:13.257Z,3.90
2019-02-15T22:14:40.937Z,4.60
2019-02-15T22:17:08.651Z,4.77
2019-02-15T22:19:36.331Z,4.40
2019-02-15T22:22:04.039Z,4.87
2019-02-15T22:24:31.717Z,5.80
2019-02-15T22:26:59.425Z,4.77
2019-02-15T22:29:27.132Z,4.03
2019-02-15T22:31:54.872Z,5.87
2019-02-15T22:34:22.609Z,6.13
2019-02-15T22:36:50.314Z,4.70
2019-02-15T22:39:18.033Z,4.70
2019-02-15T22:41:45.780Z,4.83
2019-02-15T22:44:13.505Z,5.40
2019-02-15T22:46:41.205Z,4.03
2019-02-15T22:49:08.918Z,7.27
2019-02-15T22:51:36.654Z,5.23
2019-02-15T22:54:04.366Z,6.77
2019-02-15T22:56:32.070Z,6.83
2019-02-15T22:58:59.782Z,7.17
2019-02-15T23:01:27.682Z,6.53
2019-02-15T23:03:55.491Z,6.27
2019-02-15T23:06:23.251Z,4.20
2019-02-15T23:08:50.910Z,6.57
2019-02-15T23:11:18.657Z,7.60
2019-02-15T23:13:46.317Z,6.43
2019-02-15T23:16:14.026Z,5.83
2019-02-15T23:18:41.690Z,5.37
2019-02-15T23:21:09.366Z,4.07
2019-02-15T23:23:37.070Z,4.80
2019-02-15T23:26:04.824Z,2.80
2019-02-15T23:28:32.547Z,3.47
2019-02-15T23:31:00.214Z,4.27
2019-02-15T23:33:27.926Z,4.33
2019-02-15T23:35:55.596Z,3.83
2019-02-15T23:38:23.299Z,3.53
2019-02-15T23:40:51.016Z,3.80
2019-02-15T23:43:18.758Z,2.77
2019-02-15T23:45:46.491Z,4.07
2019-02-15T23:48:14.161Z,4.43
2019-02-15T23:50:41.871Z,5.70
2019-02-15T23:53:09.569Z,3.27
2019-02-15T23:55:37.394Z,3.90
2019-02-15T23:58:05.132Z,6.50
